| time (UTC) | temp C | wind direction | speed KPH | gust KPH | rain 1hr cm | rain 24hr cm | rain mn cm | humidity % | barometer mb |
| 20260505063049 | 1 | 188 | 0.0 | 9.7 | 0.08 | 0.23 | 0.03 | 90 | 1015.6 |
| 20260505061539 | 1 | 214 | 3.2 | 14.5 | 0.08 | 0.23 | 0.03 | 91 | 1015.6 |
| 20260505060055 | 1 | 205 | 4.8 | 12.9 | 0.05 | 0.20 | 0.00 | 92 | 1015.7 |
| 20260505054547 | 1 | 201 | 3.2 | 14.5 | 0.03 | 0.18 | 0.18 | 93 | 1015.9 |
| 20260505053044 | 0 | 0 | 0.0 | 1.6 | 0.00 | 0.15 | 0.15 | 93 | 1016.1 |
| 20260505051543 | 0 | 171 | 0.0 | 3.2 | 0.00 | 0.15 | 0.15 | 93 | 1016.2 |
| 20260505041552 | 0 | 0 | 0.0 | 6.4 | 0.00 | 0.15 | 0.15 | 92 | 1016.1 |
| 20260505040046 | 0 | 0 | 0.0 | 3.2 | 0.00 | 0.15 | 0.15 | 92 | 1016.2 |
| 20260505034539 | 0 | 0 | 0.0 | 6.4 | 0.03 | 0.15 | 0.15 | 92 | 1016.0 |
| 20260505033038 | 0 | 0 | 0.0 | 3.2 | 0.05 | 0.15 | 0.15 | 91 | 1016.0 |
| 20260505031544 | 0 | 0 | 0.0 | 1.6 | 0.13 | 0.15 | 0.15 | 91 | 1016.4 |
| 20260505030056 | 0 | 74 | 0.0 | 4.8 | 0.15 | 0.15 | 0.15 | 89 | 1016.1 |
| 20260505024551 | 1 | 97 | 3.2 | 11.3 | 0.13 | 0.13 | 0.13 | 87 | 1016.1 |
| 20260505023042 | 2 | 125 | 3.2 | 9.7 | 0.10 | 0.10 | 0.10 | 86 | 1015.9 |
| 20260505021538 | 3 | 0 | 1.6 | 11.3 | 0.03 | 0.03 | 0.03 | 83 | 1015.9 |
| 20260505020040 | 4 | 58 | 6.4 | 14.5 | 0.00 | 0.00 | 0.00 | 72 | 1015.2 |
| 20260505014603 | 5 | 155 | 8.0 | 17.7 | 0.00 | 0.00 | 0.00 | 68 | 1014.9 |
| 20260505013050 | 5 | 121 | 4.8 | 16.1 | 0.00 | 0.00 | 0.00 | 65 | 1014.5 |
| 20260505011544 | 6 | 0 | 0.0 | 4.8 | 0.00 | 0.00 | 0.00 | 57 | 1014.4 |
| 20260505010053 | 7 | 0 | 1.6 | 6.4 | 0.00 | 0.00 | 0.00 | 53 | 1014.2 |
| 20260505004548 | 7 | 0 | 1.6 | 11.3 | 0.00 | 0.00 | 0.00 | 52 | 1014.3 |
| 20260505003053 | 7 | 316 | 1.6 | 11.3 | 0.00 | 0.00 | 0.00 | 53 | 1014.5 |
| 20260505001545 | 7 | 0 | 1.6 | 8.0 | 0.00 | 0.00 | 0.00 | 56 | 1014.7 |
| 20260505000043 | 6 | 264 | 0.0 | 6.4 | 0.00 | 0.00 | 0.00 | 64 | 1015.4 |
| 20260504234545 | 5 | 257 | 0.0 | 3.2 | 0.00 | 0.00 | 0.00 | 69 | 1015.4 |
| 20260504233039 | 5 | 274 | 4.8 | 16.1 | 0.00 | 0.00 | 0.00 | 72 | 1015.6 |
| 20260504231539 | 7 | 309 | 8.0 | 19.3 | 0.00 | 0.00 | 0.00 | 57 | 1015.9 |
| 20260504230046 | 7 | 217 | 6.4 | 19.3 | 0.00 | 0.00 | 0.00 | 50 | 1015.5 |
| 20260504224543 | 8 | 265 | 17.7 | 41.8 | 0.00 | 0.00 | 0.00 | 44 | 1015.0 |
| 20260504223101 | 10 | 292 | 9.7 | 25.7 | 0.00 | 0.00 | 0.00 | 39 | 1014.6 |
| 20260504221540 | 11 | 270 | 4.8 | 17.7 | 0.00 | 0.00 | 0.00 | 36 | 1014.6 |
| 20260504220040 | 11 | 302 | 8.0 | 19.3 | 0.00 | 0.00 | 0.00 | 37 | 1014.8 |
| 20260504214538 | 11 | 319 | 6.4 | 22.5 | 0.00 | 0.00 | 0.00 | 37 | 1014.9 |
| 20260504213044 | 10 | 261 | 4.8 | 16.1 | 0.00 | 0.00 | 0.00 | 41 | 1015.4 |
| 20260504211615 | 8 | 281 | 4.8 | 24.1 | 0.00 | 0.00 | 0.00 | 43 | 1015.7 |
| 20260504210046 | 7 | 238 | 9.7 | 27.4 | 0.00 | 0.00 | 0.00 | 50 | 1015.7 |
| 20260504204539 | 9 | 279 | 12.9 | 41.8 | 0.00 | 0.00 | 0.00 | 40 | 1015.8 |
| 20260504203038 | 12 | 284 | 4.8 | 16.1 | 0.00 | 0.00 | 0.00 | 31 | 1014.8 |
| 20260504201538 | 12 | 355 | 3.2 | 14.5 | 0.00 | 0.00 | 0.00 | 33 | 1015.0 |
| 20260504200043 | 11 | 20 | 3.2 | 16.1 | 0.00 | 0.00 | 0.00 | 38 | 1015.3 |
| 20260504194549 | 9 | 348 | 8.0 | 19.3 | 0.00 | 0.00 | 0.00 | 47 | 1015.7 |
| 20260504193041 | 10 | 333 | 3.2 | 14.5 | 0.00 | 0.00 | 0.00 | 44 | 1016.2 |
| 20260504191546 | 8 | 261 | 6.4 | 19.3 | 0.00 | 0.00 | 0.00 | 57 | 1016.6 |
| 20260504190044 | 5 | 265 | 16.1 | 37.0 | 0.00 | 0.00 | 0.00 | 71 | 1017.3 |
| 20260504184550 | 7 | 268 | 17.7 | 37.0 | 0.00 | 0.00 | 0.00 | 63 | 1017.2 |
| 20260504183042 | 8 | 273 | 16.1 | 38.6 | 0.00 | 0.00 | 0.00 | 51 | 1016.8 |
| 20260504181538 | 11 | 261 | 8.0 | 29.0 | 0.00 | 0.00 | 0.00 | 33 | 1015.9 |
| 20260504180039 | 11 | 311 | 4.8 | 19.3 | 0.00 | 0.00 | 0.00 | 30 | 1015.9 |
| 20260504174543 | 10 | 253 | 9.7 | 22.5 | 0.00 | 0.00 | 0.00 | 35 | 1016.3 |
| 20260504173050 | 10 | 279 | 8.0 | 24.1 | 0.00 | 0.00 | 0.00 | 34 | 1016.7 |
| 20260504171544 | 9 | 222 | 4.8 | 20.9 | 0.00 | 0.00 | 0.00 | 35 | 1016.9 |
| 20260504081543 | 2 | 203 | 6.4 | 16.1 | 0.00 | 0.00 | 0.00 | 48 | 1018.2 |